Time;durP1;ratioP1;P1;durP2;ratioP2;P2;SDS_P1;SDS_P2;PMS_P1;PMS_P2;Temp;Humidity;BMP_temperature;BMP_pressure;BME280_temperature;BME280_humidity;BME280_pressure;Samples;Min_cycle;Max_cycle;Signal;HPM_P1;HPM_P2
2023/11/07 00:00:11;;;;;;;22.70;11.98;;;332.90;2329.60;;;;;;5051439;28;20040;-77
2023/11/07 00:02:37;;;;;;;20.92;11.70;;;308.10;2304.00;;;;;;5043710;28;20025;-76
2023/11/07 00:05:04;;;;;;;22.55;10.68;;;332.80;2329.60;;;;;;5058496;28;20028;-76
2023/11/07 00:07:29;;;;;;;19.20;10.00;;;308.10;2304.00;;;;;;5067490;28;20013;-76
2023/11/07 00:09:55;;;;;;;26.50;9.65;;;308.00;2304.00;;;;;;5060956;28;20035;-76
2023/11/07 00:12:21;;;;;;;21.38;10.50;;;307.90;2304.00;;;;;;5059987;28;20462;-75
2023/11/07 00:14:47;;;;;;;22.58;9.90;;;307.80;2304.00;;;;;;5050676;28;20029;-76
2023/11/07 00:17:13;;;;;;;19.50;10.30;;;307.80;2304.00;;;;;;5062057;28;20471;-76
2023/11/07 00:19:39;;;;;;;21.27;9.82;;;307.80;2304.00;;;;;;5058838;28;20048;-75
2023/11/07 00:22:05;;;;;;;23.65;10.10;;;307.80;2304.00;;;;;;5059908;28;20099;-76
2023/11/07 00:24:31;;;;;;;27.77;11.27;;;307.80;2304.00;;;;;;5064689;28;20036;-76
2023/11/07 00:26:59;;;;;;;23.10;11.45;;;307.80;2304.00;;;;;;5055770;28;20481;-76
2023/11/07 00:29:28;;;;;;;21.27;11.32;;;307.80;2304.00;;;;;;5058410;28;20024;-76
2023/11/07 00:31:54;;;;;;;19.80;11.13;;;307.80;2304.00;;;;;;5048745;28;20024;-77
2023/11/07 00:34:20;;;;;;;16.45;10.00;;;307.80;2304.00;;;;;;5063029;28;20036;-76
2023/11/07 00:36:46;;;;;;;19.80;10.30;;;307.80;2304.00;;;;;;5057383;28;20021;-76
2023/11/07 00:39:14;;;;;;;24.02;10.40;;;307.70;2304.00;;;;;;5065418;28;20394;-76
2023/11/07 00:41:40;;;;;;;19.13;9.52;;;307.60;2304.00;;;;;;5063252;28;20050;-76
2023/11/07 00:44:06;;;;;;;17.23;9.48;;;307.50;2304.00;;;;;;5057849;28;20135;-76
2023/11/07 00:46:32;;;;;;;15.95;9.65;;;307.50;2304.00;;;;;;5039992;28;20079;-76
2023/11/07 00:48:58;;;;;;;19.50;9.02;;;307.50;2304.00;;;;;;5068546;28;20130;-76
2023/11/07 00:51:24;;;;;;;19.58;8.70;;;307.40;2304.00;;;;;;5041550;28;20021;-75
2023/11/07 00:53:50;;;;;;;28.00;10.80;;;307.40;2304.00;;;;;;5055824;28;20033;-76
2023/11/07 00:56:17;;;;;;;20.35;9.20;;;307.30;2304.00;;;;;;5060234;28;20488;-76
2023/11/07 00:58:42;;;;;;;16.83;9.18;;;282.50;2278.40;;;;;;5061726;28;20188;-77
2023/11/07 01:01:09;;;;;;;22.23;11.43;;;307.30;2304.00;;;;;;5056009;28;20465;-76
2023/11/07 01:03:35;;;;;;;20.83;11.20;;;307.50;2304.00;;;;;;5074709;28;20028;-76
2023/11/07 01:06:01;;;;;;;24.10;11.20;;;307.50;2304.00;;;;;;5053294;28;20036;-76
2023/11/07 01:08:27;;;;;;;23.98;10.75;;;307.40;2304.00;;;;;;5053291;28;20024;-77
2023/11/07 01:10:53;;;;;;;28.75;12.23;;;307.50;2304.00;;;;;;5065105;28;20528;-77
2023/11/07 01:13:19;;;;;;;26.52;10.65;;;307.50;2304.00;;;;;;5056447;28;20418;-76
2023/11/07 01:15:45;;;;;;;28.15;11.15;;;307.50;2304.00;;;;;;5056241;28;20052;-77
2023/11/07 01:18:11;;;;;;;23.73;11.40;;;307.50;2304.00;;;;;;5055560;28;20053;-77
2023/11/07 01:20:37;;;;;;;23.30;11.65;;;307.50;2304.00;;;;;;5074055;28;20031;-77
2023/11/07 01:23:03;;;;;;;24.88;11.02;;;307.50;2304.00;;;;;;5054998;28;20065;-76
2023/11/07 01:25:29;;;;;;;19.90;10.13;;;307.50;2304.00;;;;;;5073573;28;20048;-77
2023/11/07 01:27:55;;;;;;;19.27;10.43;;;307.50;2304.00;;;;;;5073661;28;20074;-75
2023/11/07 01:30:21;;;;;;;18.90;9.82;;;307.50;2304.00;;;;;;5073921;28;20031;-77
2023/11/07 01:32:49;;;;;;;23.90;10.32;;;307.60;2304.00;;;;;;5073834;28;20021;-76
2023/11/07 01:35:16;;;;;;;18.35;9.80;;;307.60;2304.00;;;;;;5073820;28;20509;-77
2023/11/07 01:37:42;;;;;;;18.17;10.63;;;307.60;2304.00;;;;;;5055715;28;20420;-77
2023/11/07 01:40:11;;;;;;;22.75;11.77;;;307.70;2304.00;;;;;;5073872;28;20032;-77
2023/11/07 01:42:44;;;;;;;27.92;13.05;;;307.60;2304.00;;;;;;5073208;28;20046;-76
2023/11/07 01:45:10;;;;;;;29.52;11.48;;;307.60;2304.00;;;;;;5073368;28;20494;-77
2023/11/07 01:47:38;;;;;;;21.45;10.48;;;307.60;2304.00;;;;;;5055337;28;20375;-77
2023/11/07 01:50:09;;;;;;;19.02;10.73;;;307.70;2304.00;;;;;;5055615;28;20099;-76
2023/11/07 01:52:35;;;;;;;22.90;10.77;;;307.70;2304.00;;;;;;5073516;28;20020;-77
2023/11/07 01:55:01;;;;;;;19.88;10.40;;;307.80;2304.00;;;;;;5073499;28;20138;-78
2023/11/07 01:57:27;;;;;;;18.42;9.77;;;307.80;2304.00;;;;;;5055123;28;20123;-77
2023/11/07 01:59:53;;;;;;;21.40;10.10;;;307.80;2304.00;;;;;;5055549;28;20094;-76
2023/11/07 02:02:20;;;;;;;25.98;11.43;;;307.80;2304.00;;;;;;5073110;28;20024;-77
2023/11/07 02:04:47;;;;;;;27.00;12.07;;;307.60;2304.00;;;;;;5055356;28;20068;-77
2023/11/07 02:07:13;;;;;;;33.80;12.90;;;307.50;2304.00;;;;;;5073187;28;20025;-77
2023/11/07 02:09:39;;;;;;;25.13;11.48;;;307.50;2304.00;;;;;;5055383;28;20071;-76
2023/11/07 02:12:05;;;;;;;26.73;12.68;;;307.50;2304.00;;;;;;5041757;28;20123;-77
2023/11/07 02:14:36;;;;;;;27.10;14.18;;;307.50;2304.00;;;;;;5054891;28;20123;-77
2023/11/07 02:17:05;;;;;;;25.40;13.45;;;307.50;2304.00;;;;;;5055158;28;20032;-76
2023/11/07 02:19:32;;;;;;;31.45;15.20;;;307.50;2304.00;;;;;;5054726;28;20044;-76
2023/11/07 02:22:01;;;;;;;27.27;14.63;;;307.60;2304.00;;;;;;5073124;28;20024;-77
2023/11/07 02:24:30;;;;;;;27.98;15.15;;;307.60;2304.00;;;;;;5072996;28;20091;-76
2023/11/07 02:26:58;;;;;;;28.25;13.23;;;307.60;2304.00;;;;;;5072971;28;20023;-76
2023/11/07 02:29:24;;;;;;;28.08;13.38;;;307.60;2304.00;;;;;;5072924;28;20026;-77
2023/11/07 02:31:50;;;;;;;31.05;14.02;;;307.70;2304.00;;;;;;5055142;28;20020;-77
2023/11/07 02:34:17;;;;;;;28.30;14.75;;;307.60;2304.00;;;;;;5073117;28;20024;-77
2023/11/07 02:36:43;;;;;;;25.80;15.27;;;307.60;2304.00;;;;;;5072719;28;20031;-77
2023/11/07 02:39:12;;;;;;;29.42;14.88;;;307.70;2304.00;;;;;;5054821;28;20103;-77
2023/11/07 02:41:38;;;;;;;27.15;14.38;;;307.60;2304.00;;;;;;5054659;28;20199;-77
2023/11/07 02:44:04;;;;;;;28.20;15.20;;;308.00;2304.00;;;;;;5054532;28;20151;-76
2023/11/07 02:46:30;;;;;;;29.90;15.13;;;307.60;2304.00;;;;;;5072838;28;20071;-77
2023/11/07 02:48:56;;;;;;;25.42;15.23;;;307.50;2304.00;;;;;;5072491;28;20498;-77
2023/11/07 02:51:23;;;;;;;33.97;15.63;;;307.50;2304.00;;;;;;5054947;28;20028;-76
2023/11/07 02:53:50;;;;;;;32.20;16.10;;;307.50;2304.00;;;;;;5054685;28;20496;-77
2023/11/07 02:56:17;;;;;;;29.13;15.98;;;307.40;2304.00;;;;;;5072792;28;20024;-76
2023/11/07 02:58:43;;;;;;;31.25;16.63;;;307.30;2304.00;;;;;;5054213;28;20034;-77
2023/11/07 03:01:09;;;;;;;26.48;14.65;;;307.30;2304.00;;;;;;5054425;28;20385;-76
2023/11/07 03:03:35;;;;;;;28.80;15.75;;;307.30;2304.00;;;;;;5054208;28;20029;-77
2023/11/07 03:06:02;;;;;;;30.50;15.38;;;307.30;2304.00;;;;;;5072758;28;20025;-77
2023/11/07 03:08:27;;;;;;;37.45;16.83;;;307.30;2304.00;;;;;;5072690;28;20013;-76
2023/11/07 03:10:53;;;;;;;38.47;17.55;;;307.30;2304.00;;;;;;5054692;28;20017;-76
2023/11/07 03:13:20;;;;;;;31.60;16.00;;;307.30;2304.00;;;;;;5072472;28;20021;-78
2023/11/07 03:15:48;;;;;;;30.90;15.55;;;307.30;2304.00;;;;;;5072607;28;20049;-77
2023/11/07 03:18:14;;;;;;;35.63;16.95;;;307.30;2304.00;;;;;;5072066;28;20052;-77
2023/11/07 03:20:40;;;;;;;30.92;15.43;;;307.30;2304.00;;;;;;5054619;28;20044;-77
2023/11/07 03:23:06;;;;;;;34.03;15.82;;;307.20;2304.00;;;;;;5054384;28;20078;-77
2023/11/07 03:25:32;;;;;;;27.63;14.75;;;307.20;2304.00;;;;;;5072624;28;20046;-76
2023/11/07 03:27:58;;;;;;;30.35;15.07;;;307.30;2304.00;;;;;;5053829;28;20080;-77
2023/11/07 03:30:23;;;;;;;22.00;13.18;;;307.30;2304.00;;;;;;5072381;28;20045;-76
2023/11/07 03:32:49;;;;;;;32.55;16.30;;;307.30;2304.00;;;;;;5072353;28;20029;-76
2023/11/07 03:35:16;;;;;;;23.65;13.35;;;307.30;2304.00;;;;;;5072659;28;20126;-77
2023/11/07 03:37:42;;;;;;;24.80;14.68;;;307.20;2304.00;;;;;;5053910;28;20040;-77
2023/11/07 03:40:08;;;;;;;29.33;15.07;;;282.40;2278.40;;;;;;5072027;28;20021;-78
2023/11/07 03:42:34;;;;;;;32.05;15.25;;;282.50;2278.40;;;;;;5071895;28;20095;-77
2023/11/07 03:45:00;;;;;;;21.67;14.05;;;282.30;2278.40;;;;;;5072236;28;20028;-75
2023/11/07 03:47:26;;;;;;;31.65;16.10;;;282.10;2278.40;;;;;;5054937;28;20029;-77
2023/11/07 03:49:51;;;;;;;29.95;14.48;;;282.10;2278.40;;;;;;5075901;28;20621;-78
2023/11/07 03:52:17;;;;;;;29.33;15.85;;;282.00;2278.40;;;;;;5057934;28;20070;-77
2023/11/07 03:54:43;;;;;;;29.58;16.13;;;281.90;2278.40;;;;;;5057569;28;20068;-76
2023/11/07 03:57:09;;;;;;;28.08;14.77;;;281.80;2278.40;;;;;;5057317;28;20027;-76
2023/11/07 03:59:35;;;;;;;29.27;15.80;;;281.80;2278.40;;;;;;5057422;28;20040;-76
2023/11/07 04:02:03;;;;;;;30.67;16.83;;;281.80;2278.40;;;;;;5057582;28;20017;-78
2023/11/07 04:04:28;;;;;;;34.58;15.98;;;281.80;2278.40;;;;;;5075588;28;20048;-77
2023/11/07 04:06:54;;;;;;;30.77;16.58;;;281.90;2278.40;;;;;;5075483;28;20032;-76
2023/11/07 04:09:21;;;;;;;;;;;281.80;2278.40;;;;;;5076063;28;20033;-76
2023/11/07 04:11:46;;;;;;;34.45;16.00;;;281.90;2278.40;;;;;;5057317;28;20276;-77
2023/11/07 04:14:14;;;;;;;33.15;15.35;;;281.80;2278.40;;;;;;5075332;28;20025;-76
2023/11/07 04:16:40;;;;;;;25.95;14.77;;;281.90;2278.40;;;;;;5075059;28;20047;-76
2023/11/07 04:19:05;;;;;;;29.73;14.20;;;282.10;2278.40;;;;;;5057228;28;20098;-76
2023/11/07 04:21:33;;;;;;;27.45;15.18;;;282.00;2278.40;;;;;;5075230;28;20016;-77
2023/11/07 04:23:59;;;;;;;30.67;14.73;;;282.00;2278.40;;;;;;5057233;28;20021;-76
2023/11/07 04:26:27;;;;;;;38.17;16.00;;;282.00;2278.40;;;;;;5075230;28;20028;-77
2023/11/07 04:28:53;;;;;;;33.70;17.67;;;281.90;2278.40;;;;;;5074966;28;20024;-78
2023/11/07 04:31:19;;;;;;;28.92;15.75;;;281.90;2278.40;;;;;;5057021;28;20464;-77
2023/11/07 04:33:45;;;;;;;28.35;15.80;;;281.90;2278.40;;;;;;5057197;28;20115;-76
2023/11/07 04:36:12;;;;;;;25.00;15.20;;;281.90;2278.40;;;;;;5075133;28;20025;-75
2023/11/07 04:38:41;;;;;;;28.30;15.23;;;281.90;2278.40;;;;;;5056952;28;20062;-77
2023/11/07 04:41:07;;;;;;;25.15;14.45;;;281.90;2278.40;;;;;;5080001;28;20379;-76
2023/11/07 04:43:35;;;;;;;21.40;13.93;;;281.90;2278.40;;;;;;5082910;28;20035;-76
2023/11/07 04:46:02;;;;;;;24.27;13.38;;;282.00;2278.40;;;;;;5074642;28;20027;-76
2023/11/07 04:48:30;;;;;;;25.58;14.30;;;282.00;2278.40;;;;;;5056731;28;20036;-76
2023/11/07 04:50:57;;;;;;;24.48;14.15;;;282.00;2278.40;;;;;;5074745;28;20020;-76
2023/11/07 04:53:23;;;;;;;27.55;15.57;;;282.00;2278.40;;;;;;5056790;28;20028;-76
2023/11/07 04:55:49;;;;;;;29.40;15.82;;;256.90;2252.80;;;;;;5056561;28;20052;-76
2023/11/07 04:58:16;;;;;;;29.08;17.85;;;282.10;2278.40;;;;;;5074243;28;20489;-76
2023/11/07 05:00:42;;;;;;;38.90;17.58;;;282.10;2278.40;;;;;;5076882;28;20399;-76
2023/11/07 05:03:09;;;;;;;35.65;18.00;;;282.20;2278.40;;;;;;5081839;28;20028;-77
2023/11/07 05:05:34;;;;;;;37.10;17.25;;;282.10;2278.40;;;;;;5074436;28;20508;-76
2023/11/07 05:08:00;;;;;;;37.00;20.10;;;282.10;2278.40;;;;;;5058498;28;20060;-77
2023/11/07 05:10:26;;;;;;;37.50;21.08;;;282.10;2278.40;;;;;;5056220;28;20044;-77
2023/11/07 05:12:51;;;;;;;35.90;22.17;;;282.00;2278.40;;;;;;5074273;28;20174;-77
2023/11/07 05:15:17;;;;;;;44.78;26.17;;;282.10;2278.40;;;;;;5073974;28;20031;-77
2023/11/07 05:17:43;;;;;;;41.40;26.63;;;282.20;2278.40;;;;;;5073857;28;20123;-77
2023/11/07 05:20:10;;;;;;;53.63;30.25;;;282.20;2278.40;;;;;;5074065;28;20035;-77
2023/11/07 05:22:39;;;;;;;52.38;35.80;;;282.30;2278.40;;;;;;5074178;28;20024;-78
2023/11/07 05:25:08;;;;;;;53.45;30.27;;;282.40;2278.40;;;;;;5056114;28;20031;-76
2023/11/07 05:27:34;;;;;;;47.47;29.73;;;282.40;2278.40;;;;;;5055889;28;20121;-76
2023/11/07 05:30:00;;;;;;;25.00;14.73;;;282.50;2278.40;;;;;;5055640;28;20598;-78
2023/11/07 05:32:27;;;;;;;20.00;12.73;;;282.50;2278.40;;;;;;5055789;28;20548;-77
2023/11/07 05:34:52;;;;;;;25.45;11.90;;;282.50;2278.40;;;;;;5056093;28;20394;-76
2023/11/07 05:37:18;;;;;;;25.40;12.68;;;282.40;2278.40;;;;;;5055779;28;20017;-77
2023/11/07 05:39:44;;;;;;;20.88;12.00;;;282.40;2278.40;;;;;;5055757;28;20016;-76
2023/11/07 05:42:11;;;;;;;23.10;13.95;;;282.30;2278.40;;;;;;5073571;28;20048;-77
2023/11/07 05:44:37;;;;;;;21.33;13.75;;;282.40;2278.40;;;;;;5055515;28;20131;-77
2023/11/07 05:47:03;;;;;;;19.75;12.68;;;282.40;2278.40;;;;;;5055147;28;20472;-78
2023/11/07 05:49:29;;;;;;;24.58;12.45;;;282.40;2278.40;;;;;;5073416;28;20474;-77
2023/11/07 05:51:56;;;;;;;27.50;12.73;;;282.30;2278.40;;;;;;5055344;28;20043;-77
2023/11/07 05:54:22;;;;;;;22.65;13.50;;;282.40;2278.40;;;;;;5073505;28;20029;-77
2023/11/07 05:56:48;;;;;;;20.70;11.95;;;282.50;2278.40;;;;;;5073452;28;20028;-77
2023/11/07 05:59:14;;;;;;;26.63;14.50;;;282.50;2278.40;;;;;;5073036;28;20035;-76
2023/11/07 06:01:40;;;;;;;21.98;13.25;;;282.20;2278.40;;;;;;5073096;28;20028;-77
2023/11/07 06:04:07;;;;;;;28.60;12.68;;;282.40;2278.40;;;;;;5070477;28;20544;-76
2023/11/07 06:06:33;;;;;;;29.35;15.05;;;282.50;2278.40;;;;;;5060937;28;20044;-76
2023/11/07 06:08:58;;;;;;;45.13;23.50;;;282.50;2278.40;;;;;;5064786;28;20060;-78
2023/11/07 06:11:24;;;;;;;45.03;21.20;;;282.50;2278.40;;;;;;5060425;28;20017;-76
2023/11/07 06:13:50;;;;;;;92.15;29.60;;;307.20;2304.00;;;;;;5062038;28;20029;-76
2023/11/07 06:16:15;;;;;;;57.78;23.30;;;282.50;2278.40;;;;;;5068396;28;20032;-76
2023/11/07 06:18:41;;;;;;;30.60;15.02;;;282.40;2278.40;;;;;;5062355;28;20088;-76
2023/11/07 06:21:08;;;;;;;28.38;12.75;;;282.20;2278.40;;;;;;5053319;28;20482;-76
2023/11/07 06:23:34;;;;;;;22.98;13.35;;;282.20;2278.40;;;;;;5045887;28;20045;-76
2023/11/07 06:26:00;;;;;;;22.10;12.15;;;282.30;2278.40;;;;;;5068302;28;20027;-76
2023/11/07 06:28:28;;;;;;;28.13;16.15;;;282.30;2278.40;;;;;;5041784;28;20123;-76
2023/11/07 06:30:54;;;;;;;27.35;13.43;;;282.30;2278.40;;;;;;5044999;28;20383;-76
2023/11/07 06:33:20;;;;;;;27.40;12.90;;;282.50;2278.40;;;;;;5073197;28;20024;-76
2023/11/07 06:35:47;;;;;;;30.38;13.27;;;307.30;2304.00;;;;;;5056539;28;20021;-76
2023/11/07 06:38:12;;;;;;;26.80;13.10;;;307.40;2304.00;;;;;;5062144;28;20478;-76
2023/11/07 06:40:38;;;;;;;24.63;12.77;;;307.60;2304.00;;;;;;5060616;28;20074;-76
2023/11/07 06:43:04;;;;;;;26.67;12.40;;;307.70;2304.00;;;;;;5046918;28;20024;-76
2023/11/07 06:45:30;;;;;;;25.70;12.20;;;307.70;2304.00;;;;;;5053949;28;20048;-77
2023/11/07 06:47:56;;;;;;;29.42;12.43;;;307.70;2304.00;;;;;;5061271;28;20118;-77
2023/11/07 06:50:21;;;;;;;29.55;10.88;;;307.80;2304.00;;;;;;5058049;28;20017;-74
2023/11/07 06:52:52;;;;;;;25.60;12.18;;;307.70;2304.00;;;;;;5064578;28;20028;-74
2023/11/07 06:55:24;;;;;;;20.73;10.90;;;307.80;2304.00;;;;;;5057006;28;20025;-75
2023/11/07 06:57:52;;;;;;;22.05;9.95;;;308.00;2304.00;;;;;;5056976;28;20024;-79
2023/11/07 07:00:21;;;;;;;15.68;8.82;;;307.90;2304.00;;;;;;5066732;28;20070;-78
2023/11/07 07:02:48;;;;;;;24.48;9.43;;;307.90;2304.00;;;;;;5055745;28;20021;-77
2023/11/07 07:05:15;;;;;;;20.77;10.85;;;308.00;2304.00;;;;;;5064693;28;20436;-81
2023/11/07 07:07:42;;;;;;;26.33;10.63;;;308.10;2304.00;;;;;;5046221;28;20538;-79
2023/11/07 07:10:09;;;;;;;28.58;9.90;;;308.00;2304.00;;;;;;5049486;28;20447;-80
2023/11/07 07:12:38;;;;;;;26.10;10.23;;;308.00;2304.00;;;;;;5048779;28;20469;-77
2023/11/07 07:15:09;;;;;;;18.95;10.13;;;307.90;2304.00;;;;;;5054288;28;20021;-81
2023/11/07 07:17:34;;;;;;;22.15;10.60;;;308.00;2304.00;;;;;;5051062;28;20052;-80
2023/11/07 07:20:01;;;;;;;22.73;10.70;;;308.10;2304.00;;;;;;5047062;28;20028;-80
2023/11/07 07:22:32;;;;;;;19.63;9.98;;;332.80;2329.60;;;;;;5039860;28;20009;-78
2023/11/07 07:25:05;;;;;;;21.42;10.77;;;308.10;2304.00;;;;;;5070851;28;20028;-78
2023/11/07 07:27:33;;;;;;;18.10;10.25;;;308.00;2304.00;;;;;;5061910;28;20068;-77
2023/11/07 07:29:59;;;;;;;23.92;10.00;;;308.00;2304.00;;;;;;5068931;28;20558;-80
2023/11/07 07:32:26;;;;;;;16.88;9.90;;;308.00;2304.00;;;;;;5060863;28;20032;-79
2023/11/07 07:34:55;;;;;;;28.00;10.90;;;308.10;2304.00;;;;;;5065427;28;20108;-81
2023/11/07 07:37:23;;;;;;;23.48;10.50;;;332.80;2329.60;;;;;;5053000;28;20047;-81
2023/11/07 07:39:49;;;;;;;19.92;9.93;;;332.80;2329.60;;;;;;5069752;28;20021;-80
2023/11/07 07:42:17;;;;;;;23.25;11.25;;;332.80;2329.60;;;;;;5054163;28;20013;-78
2023/11/07 07:44:43;;;;;;;24.17;12.30;;;332.80;2329.60;;;;;;5053507;28;20412;-77
2023/11/07 07:47:10;;;;;;;21.52;12.07;;;308.10;2304.00;;;;;;5047275;28;20119;-82
2023/11/07 07:49:36;;;;;;;31.63;15.27;;;332.80;2329.60;;;;;;5053490;28;20036;-84
2023/11/07 07:52:02;;;;;;;32.58;16.40;;;332.90;2329.60;;;;;;5070427;28;20049;-80
2023/11/07 07:54:29;;;;;;;31.58;16.45;;;333.00;2329.60;;;;;;5048634;28;20115;-81
2023/11/07 07:56:57;;;;;;;34.83;17.17;;;333.10;2329.60;;;;;;5063105;28;20013;-78
2023/11/07 07:59:24;;;;;;;32.20;19.25;;;333.10;2329.60;;;;;;5075513;28;20036;-80
2023/11/07 08:01:55;;;;;;;30.05;18.30;;;333.40;2329.60;;;;;;5056115;28;20020;-82
2023/11/07 08:04:22;;;;;;;35.33;15.55;;;333.50;2329.60;;;;;;5059099;28;20025;-82
2023/11/07 08:06:48;;;;;;;30.17;15.45;;;333.40;2329.60;;;;;;5066096;28;20074;-81
2023/11/07 08:09:14;;;;;;;27.27;15.73;;;333.50;2329.60;;;;;;5039530;28;20025;-80
2023/11/07 08:11:41;;;;;;;30.45;15.88;;;333.50;2329.60;;;;;;5059758;28;20021;-82
2023/11/07 08:14:07;;;;;;;30.80;17.17;;;333.70;2329.60;;;;;;5048085;28;20032;-80
2023/11/07 08:16:33;;;;;;;29.75;14.90;;;333.70;2329.60;;;;;;5043868;28;20054;-81
2023/11/07 08:18:59;;;;;;;26.40;16.27;;;358.40;2329.60;;;;;;5048304;28;20052;-81
2023/11/07 08:21:26;;;;;;;29.90;16.63;;;358.50;2329.60;;;;;;5044567;28;20466;-80
2023/11/07 08:23:52;;;;;;;30.63;16.08;;;358.70;2329.60;;;;;;5066939;28;20013;-81
2023/11/07 08:26:17;;;;;;;27.15;16.33;;;358.90;2329.60;;;;;;5046881;28;20021;-79
2023/11/07 08:28:43;;;;;;;29.80;15.65;;;358.90;2329.60;;;;;;5043681;28;20115;-78
2023/11/07 08:31:12;;;;;;;29.02;16.83;;;359.00;2329.60;;;;;;5047098;28;20028;-83
2023/11/07 08:33:38;;;;;;;33.53;20.35;;;359.10;2329.60;;;;;;5066221;28;20025;-81
2023/11/07 08:36:04;;;;;;;31.30;18.83;;;359.10;2329.60;;;;;;5044559;28;20052;-81
2023/11/07 08:38:31;;;;;;;27.58;17.75;;;359.20;2329.60;;;;;;5054198;28;20032;-80
2023/11/07 08:40:57;;;;;;;30.98;19.92;;;359.20;2329.60;;;;;;5047727;28;20112;-82
2023/11/07 08:43:22;;;;;;;30.25;21.58;;;359.30;2329.60;;;;;;5050626;28;20115;-81
2023/11/07 08:45:49;;;;;;;32.22;19.30;;;384.00;2329.60;;;;;;5050324;28;20521;-83
2023/11/07 08:48:14;;;;;;;30.77;18.75;;;384.00;2329.60;;;;;;5044985;28;20453;-81
2023/11/07 08:50:40;;;;;;;30.20;20.60;;;384.20;2329.60;;;;;;5050595;28;20032;-80
2023/11/07 08:53:06;;;;;;;33.33;21.10;;;384.30;2329.60;;;;;;5048448;28;20064;-82
2023/11/07 08:55:32;;;;;;;33.45;21.30;;;384.40;2329.60;;;;;;5049269;28;20052;-81
2023/11/07 08:57:58;;;;;;;38.85;25.00;;;384.40;2329.60;;;;;;5051828;28;20075;-81
2023/11/07 09:00:26;;;;;;;43.38;28.00;;;384.50;2329.60;;;;;;5054257;28;20019;-83
2023/11/07 09:02:53;;;;;;;41.45;26.90;;;384.50;2329.60;;;;;;5047650;28;20116;-82
2023/11/07 09:05:20;;;;;;;38.08;27.70;;;384.50;2329.60;;;;;;5047387;28;20052;-81
2023/11/07 09:07:46;;;;;;;40.95;28.45;;;384.60;2329.60;;;;;;5043292;28;20039;-79
2023/11/07 09:10:12;;;;;;;40.97;28.60;;;384.70;2329.60;;;;;;5049915;28;20025;-83
2023/11/07 09:12:41;;;;;;;38.63;24.63;;;384.80;2329.60;;;;;;5061432;28;20040;-82
2023/11/07 09:15:11;;;;;;;44.38;22.13;;;409.60;2355.20;;;;;;5057964;28;20104;-79
2023/11/07 09:17:41;;;;;;;31.35;19.90;;;409.60;2355.20;;;;;;5063605;28;20036;-81
2023/11/07 09:20:14;;;;;;;25.52;15.13;;;409.80;2355.20;;;;;;5045991;28;20514;-81
2023/11/07 09:22:41;;;;;;;23.15;14.07;;;410.10;2355.20;;;;;;5054875;28;20025;-82
2023/11/07 09:25:08;;;;;;;19.52;11.57;;;410.30;2355.20;;;;;;5038249;28;20032;-81
2023/11/07 09:27:36;;;;;;;20.70;12.50;;;435.20;2355.20;;;;;;5047638;28;20025;-82
2023/11/07 09:30:08;;;;;;;32.47;13.00;;;435.50;2355.20;;;;;;5049013;28;20039;-84
2023/11/07 09:32:35;;;;;;;23.02;11.68;;;435.80;2355.20;;;;;;5052068;28;20021;-79
2023/11/07 09:35:03;;;;;;;19.42;11.02;;;435.60;2355.20;;;;;;5045047;28;20028;-84
2023/11/07 09:37:29;;;;;;;22.00;10.90;;;435.70;2355.20;;;;;;5049205;28;20040;-83
2023/11/07 09:39:55;;;;;;;18.02;12.45;;;435.80;2355.20;;;;;;5043436;28;20029;-81
2023/11/07 09:42:21;;;;;;;17.08;10.93;;;460.90;2380.80;;;;;;5047206;28;20047;-80
2023/11/07 09:44:50;;;;;;;25.42;10.70;;;436.00;2355.20;;;;;;5039762;28;20033;-79
2023/11/07 09:47:16;;;;;;;15.82;8.80;;;435.80;2355.20;;;;;;5045432;28;20036;-79
2023/11/07 09:49:42;;;;;;;19.00;9.02;;;435.90;2355.20;;;;;;5065486;28;20078;-81
2023/11/07 09:52:08;;;;;;;17.58;9.68;;;435.70;2355.20;;;;;;5042481;28;20021;-82
2023/11/07 09:54:37;;;;;;;22.17;11.88;;;436.10;2355.20;;;;;;5041895;28;20382;-81
2023/11/07 09:57:08;;;;;;;21.05;9.35;;;460.80;2380.80;;;;;;5060837;28;20063;-81
2023/11/07 09:59:36;;;;;;;17.35;9.38;;;461.00;2380.80;;;;;;5061804;28;20028;-82
2023/11/07 10:02:03;;;;;;;15.85;7.45;;;461.50;2380.80;;;;;;5049130;28;20047;-81
2023/11/07 10:04:31;;;;;;;16.52;7.07;;;461.70;2380.80;;;;;;5044676;28;20021;-82
2023/11/07 10:06:58;;;;;;;20.63;7.70;;;461.70;2380.80;;;;;;5046478;28;20031;-81
2023/11/07 10:09:26;;;;;;;16.52;7.60;;;486.40;2380.80;;;;;;5049031;28;20107;-80
2023/11/07 10:11:53;;;;;;;19.52;8.15;;;461.60;2380.80;;;;;;5046026;28;20059;-78
2023/11/07 10:14:20;;;;;;;16.30;10.45;;;461.50;2380.80;;;;;;5046644;28;20099;-81
2023/11/07 10:17:04;;;;;;;23.70;12.38;;;461.40;2380.80;;;;;;5049784;28;20021;-81
2023/11/07 10:19:30;;;;;;;22.92;13.88;;;461.70;2380.80;;;;;;5041321;28;20503;-81
2023/11/07 10:21:56;;;;;;;26.75;17.27;;;486.80;2380.80;;;;;;5054543;28;20393;-80
2023/11/07 10:24:22;;;;;;;37.25;23.15;;;487.10;2380.80;;;;;;5066228;28;20037;-80
2023/11/07 10:26:59;;;;;;;48.30;31.77;;;512.00;2380.80;;;;;;5056697;28;20040;-80
2023/11/07 10:29:25;;;;;;;26.88;20.63;;;512.60;2380.80;;;;;;5043464;28;20029;-82
2023/11/07 10:32:07;;;;;;;27.63;17.83;;;512.80;2380.80;;;;;;5044025;28;20067;-80
2023/11/07 10:34:34;;;;;;;13.10;7.95;;;512.20;2380.80;;;;;;5045538;28;20036;-79
2023/11/07 10:37:00;;;;;;;15.32;7.07;;;512.50;2380.80;;;;;;5059384;28;20074;-79
2023/11/07 10:39:26;;;;;;;16.40;5.78;;;537.80;2406.40;;;;;;5047618;28;20435;-80
2023/11/07 10:41:58;;;;;;;14.80;7.40;;;538.20;2406.40;;;;;;5058199;28;20021;-80
2023/11/07 10:44:29;;;;;;;17.63;4.90;;;538.40;2406.40;;;;;;5047732;28;20025;-79
2023/11/07 10:46:57;;;;;;;10.73;5.10;;;;;;;;;;5045050;28;20017;-79
2023/11/07 10:49:24;;;;;;;13.95;5.30;;;563.20;2432.00;;;;;;5050816;28;20029;-80
2023/11/07 10:51:50;;;;;;;11.05;5.03;;;563.30;2432.00;;;;;;5060290;28;20025;-79
2023/11/07 10:54:20;;;;;;;11.10;4.70;;;;;;;;;;5043838;28;20367;-79
2023/11/07 10:56:47;;;;;;;9.85;3.63;;;;;;;;;;5044918;28;20423;-80
2023/11/07 10:59:21;;;;;;;12.23;4.07;;;563.90;2227.20;;;;;;5058993;28;20039;-80
2023/11/07 11:01:52;;;;;;;10.75;4.65;;;563.80;2227.20;;;;;;5047474;28;20104;-79
2023/11/07 11:04:22;;;;;;;13.27;5.03;;;563.70;2227.20;;;;;;5050091;28;20054;-79
2023/11/07 11:07:07;;;;;;;9.40;4.20;;;564.10;2252.80;;;;;;5048007;28;20070;-79
2023/11/07 11:09:35;;;;;;;7.80;3.90;;;563.90;2201.60;;;;;;5044395;28;20094;-78
2023/11/07 11:12:04;;;;;;;12.30;4.05;;;563.50;2278.40;;;;;;5066092;28;20017;-80
2023/11/07 11:14:30;;;;;;;12.60;3.90;;;563.30;2355.20;;;;;;5066630;28;20117;-79
2023/11/07 11:17:08;;;;;;;17.70;5.35;;;563.60;2355.20;;;;;;5069955;28;20024;-78
2023/11/07 11:20:10;;;;;;;14.27;4.63;;;;;;;;;;5072567;28;20052;-78
2023/11/07 11:22:39;;;;;;;17.60;6.65;;;;;;;;;;4968443;28;20624;-79
2023/11/07 11:25:31;;;;;;;18.40;6.07;;;538.50;2406.40;;;;;;4989150;28;20185;-79
2023/11/07 11:28:01;;;;;;;10.00;4.68;;;538.50;2406.40;;;;;;4995956;28;20476;-78
2023/11/07 11:30:28;;;;;;;15.50;5.93;;;538.40;2406.40;;;;;;4999198;28;20048;-80
2023/11/07 11:33:11;;;;;;;15.52;6.03;;;538.50;2406.40;;;;;;4986329;28;20530;-79
2023/11/07 11:35:41;;;;;;;19.05;6.03;;;538.50;2406.40;;;;;;4997320;28;20519;-79
2023/11/07 11:38:12;;;;;;;12.90;4.75;;;563.30;2432.00;;;;;;4963795;28;20058;-78
2023/11/07 11:40:59;;;;;;;14.82;4.68;;;563.40;2432.00;;;;;;5004877;28;20385;-81
2023/11/07 11:43:33;;;;;;;;;;;563.20;2432.00;;;;;;4976712;28;20041;-80
2023/11/07 11:46:14;;;;;;;12.15;4.68;;;563.20;2432.00;;;;;;4979879;28;19909;-80
2023/11/07 11:49:11;;;;;;;11.63;4.82;;;563.30;2432.00;;;;;;4992772;28;20159;-81
2023/11/07 11:51:37;;;;;;;;;;;563.40;2380.80;;;;;;4894106;29;20104;-80
2023/11/07 11:54:08;;;;;;;9.80;4.18;;;563.60;2304.00;;;;;;4898987;29;20361;-83
2023/11/07 11:56:54;;;;;;;9.30;4.13;;;563.40;2252.80;;;;;;4934142;28;20027;-80
2023/11/07 11:59:24;;;;;;;;;;;563.20;2304.00;;;;;;4956033;29;20055;-81
2023/11/07 12:01:52;;;;;;;9.88;4.22;;;563.50;2329.60;;;;;;4955295;28;19997;-82
2023/11/07 12:04:36;;;;;;;11.50;3.67;;;563.50;2252.80;;;;;;4939312;29;20066;-81